sensor_id;sensor_type;location;lat;lon;timestamp;temperature;humidity
64833;HTU21D;51290;45.060;38.948;2022-12-10T18:56:32;11.54;64.71
64833;HTU21D;51290;45.060;38.948;2022-12-10T18:58:59;11.54;64.75
64833;HTU21D;51290;45.060;38.948;2022-12-10T19:01:25;11.58;64.77
64833;HTU21D;51290;45.060;38.948;2022-12-10T19:03:54;11.61;64.72
64833;HTU21D;51290;45.060;38.948;2022-12-10T19:06:23;11.66;64.66
64833;HTU21D;51290;45.060;38.948;2022-12-10T19:08:51;11.70;64.61
64833;HTU21D;51290;45.060;38.948;2022-12-10T19:11:18;11.73;64.54
64833;HTU21D;51290;45.060;38.948;2022-12-10T19:13:44;11.76;64.50
64833;HTU21D;51290;45.060;38.948;2022-12-10T19:16:12;11.77;64.45
64833;HTU21D;51290;45.060;38.948;2022-12-10T19:18:38;11.79;64.39
64833;HTU21D;51290;45.060;38.948;2022-12-10T19:21:05;11.82;64.34
64833;HTU21D;51290;45.060;38.948;2022-12-10T19:23:31;11.82;64.30
64833;HTU21D;51290;45.060;38.948;2022-12-10T19:25:58;11.81;64.27
64833;HTU21D;51290;45.060;38.948;2022-12-10T19:28:24;11.79;64.24
64833;HTU21D;51290;45.060;38.948;2022-12-10T19:30:50;11.77;64.22
64833;HTU21D;51290;45.060;38.948;2022-12-10T19:33:16;11.75;64.24
64833;HTU21D;51290;45.060;38.948;2022-12-10T19:35:42;11.75;64.26
64833;HTU21D;51290;45.060;38.948;2022-12-10T19:38:13;11.73;64.27
64833;HTU21D;51290;45.060;38.948;2022-12-10T19:40:40;11.73;64.28
64833;HTU21D;51290;45.060;38.948;2022-12-10T19:43:06;11.76;64.30
64833;HTU21D;51290;45.060;38.948;2022-12-10T19:45:32;11.78;64.30
64833;HTU21D;51290;45.060;38.948;2022-12-10T19:47:59;11.82;64.27
64833;HTU21D;51290;45.060;38.948;2022-12-10T19:50:27;11.85;64.22
64833;HTU21D;51290;45.060;38.948;2022-12-10T19:52:54;11.87;64.17
64833;HTU21D;51290;45.060;38.948;2022-12-10T19:55:21;11.90;64.07
64833;HTU21D;51290;45.060;38.948;2022-12-10T19:57:49;11.91;63.98
64833;HTU21D;51290;45.060;38.948;2022-12-10T20:02:44;11.91;63.82
64833;HTU21D;51290;45.060;38.948;2022-12-10T20:05:10;11.90;63.80
64833;HTU21D;51290;45.060;38.948;2022-12-10T20:07:36;11.89;63.73
64833;HTU21D;51290;45.060;38.948;2022-12-10T20:10:03;11.86;63.65
64833;HTU21D;51290;45.060;38.948;2022-12-10T20:12:29;11.82;63.60
64833;HTU21D;51290;45.060;38.948;2022-12-10T20:14:55;11.77;63.53
64833;HTU21D;51290;45.060;38.948;2022-12-10T20:17:21;11.71;63.52
64833;HTU21D;51290;45.060;38.948;2022-12-10T20:19:53;11.66;63.53
64833;HTU21D;51290;45.060;38.948;2022-12-10T20:22:19;11.57;63.56
64833;HTU21D;51290;45.060;38.948;2022-12-10T20:24:46;11.52;63.60
64833;HTU21D;51290;45.060;38.948;2022-12-10T20:27:16;11.47;63.69
64833;HTU21D;51290;45.060;38.948;2022-12-10T20:29:42;11.42;63.73
64833;HTU21D;51290;45.060;38.948;2022-12-10T20:32:09;11.40;63.80
64833;HTU21D;51290;45.060;38.948;2022-12-10T20:34:35;11.39;63.82
64833;HTU21D;51290;45.060;38.948;2022-12-10T20:37:01;11.37;63.88
64833;HTU21D;51290;45.060;38.948;2022-12-10T20:39:32;11.37;63.90
64833;HTU21D;51290;45.060;38.948;2022-12-10T20:41:59;11.36;63.90
64833;HTU21D;51290;45.060;38.948;2022-12-10T20:44:26;11.34;63.90
64833;HTU21D;51290;45.060;38.948;2022-12-10T20:46:53;11.32;63.88
64833;HTU21D;51290;45.060;38.948;2022-12-10T20:49:21;11.31;63.84
64833;HTU21D;51290;45.060;38.948;2022-12-10T20:51:48;11.29;63.82
64833;HTU21D;51290;45.060;38.948;2022-12-10T20:54:14;11.26;63.85
64833;HTU21D;51290;45.060;38.948;2022-12-10T20:56:41;11.24;63.88
64833;HTU21D;51290;45.060;38.948;2022-12-10T20:59:07;11.23;63.92
64833;HTU21D;51290;45.060;38.948;2022-12-10T21:01:33;11.23;63.94
64833;HTU21D;51290;45.060;38.948;2022-12-10T21:03:59;11.22;63.97
64833;HTU21D;51290;45.060;38.948;2022-12-10T21:06:29;11.24;63.96
64833;HTU21D;51290;45.060;38.948;2022-12-10T21:08:55;11.24;63.92
64833;HTU21D;51290;45.060;38.948;2022-12-10T21:11:22;11.24;63.89
64833;HTU21D;51290;45.060;38.948;2022-12-10T21:13:48;11.24;63.85
64833;HTU21D;51290;45.060;38.948;2022-12-10T21:16:17;11.23;63.82
64833;HTU21D;51290;45.060;38.948;2022-12-10T21:18:44;11.19;63.81
64833;HTU21D;51290;45.060;38.948;2022-12-10T21:21:12;11.18;63.80
64833;HTU21D;51290;45.060;38.948;2022-12-10T21:23:39;11.15;63.81
64833;HTU21D;51290;45.060;38.948;2022-12-10T21:26:06;11.12;63.79
64833;HTU21D;51290;45.060;38.948;2022-12-10T21:28:33;11.10;63.80
64833;HTU21D;51290;45.060;38.948;2022-12-10T21:30:59;11.05;63.83
64833;HTU21D;51290;45.060;38.948;2022-12-10T21:33:26;11.02;63.85
64833;HTU21D;51290;45.060;38.948;2022-12-10T21:35:52;11.00;63.89
64833;HTU21D;51290;45.060;38.948;2022-12-10T21:38:21;10.98;63.92
64833;HTU21D;51290;45.060;38.948;2022-12-10T21:40:47;10.95;63.95
64833;HTU21D;51290;45.060;38.948;2022-12-10T21:43:16;10.95;64.00
64833;HTU21D;51290;45.060;38.948;2022-12-10T21:45:50;10.94;64.02
64833;HTU21D;51290;45.060;38.948;2022-12-10T21:48:20;10.93;64.05
64833;HTU21D;51290;45.060;38.948;2022-12-10T21:50:47;10.89;64.05
64833;HTU21D;51290;45.060;38.948;2022-12-10T21:53:14;10.90;64.06
64833;HTU21D;51290;45.060;38.948;2022-12-10T21:55:40;10.89;64.08
64833;HTU21D;51290;45.060;38.948;2022-12-10T21:58:10;10.87;64.12
64833;HTU21D;51290;45.060;38.948;2022-12-10T22:00:37;10.87;64.16
64833;HTU21D;51290;45.060;38.948;2022-12-10T22:03:03;10.86;64.16
64833;HTU21D;51290;45.060;38.948;2022-12-10T22:05:29;10.86;64.18
64833;HTU21D;51290;45.060;38.948;2022-12-10T22:07:55;10.85;64.21
64833;HTU21D;51290;45.060;38.948;2022-12-10T22:10:21;10.84;64.21
64833;HTU21D;51290;45.060;38.948;2022-12-10T22:12:47;10.83;64.23
64833;HTU21D;51290;45.060;38.948;2022-12-10T22:15:13;10.82;64.22
64833;HTU21D;51290;45.060;38.948;2022-12-10T22:17:39;10.82;64.22
64833;HTU21D;51290;45.060;38.948;2022-12-10T22:20:06;10.79;64.21
64833;HTU21D;51290;45.060;38.948;2022-12-10T22:22:33;10.77;64.24
64833;HTU21D;51290;45.060;38.948;2022-12-10T22:24:59;10.74;64.26
64833;HTU21D;51290;45.060;38.948;2022-12-10T22:27:25;10.72;64.27
64833;HTU21D;51290;45.060;38.948;2022-12-10T22:30:00;10.70;64.29
64833;HTU21D;51290;45.060;38.948;2022-12-10T22:32:27;10.66;64.30
64833;HTU21D;51290;45.060;38.948;2022-12-10T22:34:53;10.64;64.32
64833;HTU21D;51290;45.060;38.948;2022-12-10T22:37:19;10.62;64.34
64833;HTU21D;51290;45.060;38.948;2022-12-10T22:39:45;10.58;64.40
64833;HTU21D;51290;45.060;38.948;2022-12-10T22:42:11;10.56;64.42
64833;HTU21D;51290;45.060;38.948;2022-12-10T22:44:37;10.55;64.48
64833;HTU21D;51290;45.060;38.948;2022-12-10T22:47:03;10.54;64.50
64833;HTU21D;51290;45.060;38.948;2022-12-10T22:49:29;10.53;64.52
64833;HTU21D;51290;45.060;38.948;2022-12-10T22:51:55;10.52;64.55
64833;HTU21D;51290;45.060;38.948;2022-12-10T22:54:22;10.51;64.53
64833;HTU21D;51290;45.060;38.948;2022-12-10T22:56:50;10.50;64.53
64833;HTU21D;51290;45.060;38.948;2022-12-10T22:59:16;10.49;64.56
64833;HTU21D;51290;45.060;38.948;2022-12-10T23:01:42;10.49;64.56
64833;HTU21D;51290;45.060;38.948;2022-12-10T23:04:08;10.48;64.59
64833;HTU21D;51290;45.060;38.948;2022-12-10T23:06:34;10.46;64.63
64833;HTU21D;51290;45.060;38.948;2022-12-10T23:09:00;10.45;64.65
64833;HTU21D;51290;45.060;38.948;2022-12-10T23:11:26;10.46;64.66
64833;HTU21D;51290;45.060;38.948;2022-12-10T23:13:52;10.46;64.69
64833;HTU21D;51290;45.060;38.948;2022-12-10T23:16:18;10.46;64.70
64833;HTU21D;51290;45.060;38.948;2022-12-10T23:18:45;10.46;64.70
64833;HTU21D;51290;45.060;38.948;2022-12-10T23:21:23;10.44;64.71
64833;HTU21D;51290;45.060;38.948;2022-12-10T23:23:49;10.46;64.69
64833;HTU21D;51290;45.060;38.948;2022-12-10T23:26:17;10.45;64.71
64833;HTU21D;51290;45.060;38.948;2022-12-10T23:28:43;10.45;64.72
64833;HTU21D;51290;45.060;38.948;2022-12-10T23:31:09;10.46;64.72
64833;HTU21D;51290;45.060;38.948;2022-12-10T23:33:38;10.44;64.72
64833;HTU21D;51290;45.060;38.948;2022-12-10T23:36:08;10.45;64.71
64833;HTU21D;51290;45.060;38.948;2022-12-10T23:38:35;10.43;64.66
64833;HTU21D;51290;45.060;38.948;2022-12-10T23:41:09;10.42;64.68
64833;HTU21D;51290;45.060;38.948;2022-12-10T23:43:36;10.42;64.69
64833;HTU21D;51290;45.060;38.948;2022-12-10T23:46:02;10.41;64.69
64833;HTU21D;51290;45.060;38.948;2022-12-10T23:48:29;10.39;64.65
64833;HTU21D;51290;45.060;38.948;2022-12-10T23:50:59;10.38;64.66
64833;HTU21D;51290;45.060;38.948;2022-12-10T23:53:26;10.37;64.66
64833;HTU21D;51290;45.060;38.948;2022-12-10T23:55:52;10.35;64.70
64833;HTU21D;51290;45.060;38.948;2022-12-10T23:58:19;10.35;64.71
